Terminal Aerodrome Forecast
Issued by NWS Tampa Bay Area, FL

Home | Current Version | Previous Version | Text Only | Print | Product List | Glossary On
Versions: 1 2 3 4 5 6 7 8 9 10 11 12 13 14 15 16 17 18 19 20 21 22 23 24 25 26 27
000
FTUS42 KTBW 240520
TAFTPA
TAF
KTPA 240520Z 2406/2512 24007KT P6SM FEW010 BKN020
      TEMPO 2408/2412 BKN012
     FM241400 27008KT P6SM SCT020 BKN100
     FM241800 26013G21KT P6SM SCT030 SCT250
     FM250100 29009KT P6SM SCT250=

USA.gov is the U.S. government's official web portal to all federal, state and local government web resources and services.